createdAt,value
2018-11-10T00:02:22.088Z,12.77
2018-11-10T00:04:49.196Z,13.37
2018-11-10T00:07:16.316Z,12.73
2018-11-10T00:09:43.409Z,12.57
2018-11-10T00:12:10.499Z,12.83
2018-11-10T00:14:37.581Z,12.40
2018-11-10T00:17:05.391Z,12.60
2018-11-10T00:19:32.496Z,13.07
2018-11-10T00:21:59.594Z,13.33
2018-11-10T00:24:26.682Z,12.80
2018-11-10T00:26:53.791Z,11.67
2018-11-10T00:29:20.916Z,13.47
2018-11-10T00:31:48.029Z,12.23
2018-11-10T00:34:15.211Z,12.00
2018-11-10T00:36:42.327Z,13.27
2018-11-10T00:39:09.670Z,13.00
2018-11-10T00:41:36.769Z,12.30
2018-11-10T00:44:04.079Z,12.53
2018-11-10T00:46:31.195Z,12.60
2018-11-10T00:48:58.338Z,13.37
2018-11-10T00:51:25.464Z,12.67
2018-11-10T00:53:52.568Z,13.10
2018-11-10T00:56:19.709Z,12.70
2018-11-10T00:58:46.839Z,13.40
2018-11-10T01:01:13.965Z,12.60
2018-11-10T01:03:41.076Z,13.37
2018-11-10T01:06:08.179Z,12.47
2018-11-10T01:08:35.310Z,14.03
2018-11-10T01:11:03.107Z,12.80
2018-11-10T01:13:30.235Z,13.03
2018-11-10T01:15:57.338Z,12.27
2018-11-10T01:18:24.440Z,12.93
2018-11-10T01:20:51.550Z,13.57
2018-11-10T01:23:18.690Z,12.93
2018-11-10T01:25:45.811Z,13.27
2018-11-10T01:28:12.901Z,12.90
2018-11-10T01:30:39.982Z,12.93
2018-11-10T01:33:07.104Z,12.60
2018-11-10T01:35:34.218Z,12.43
2018-11-10T01:38:01.347Z,13.33
2018-11-10T01:40:28.479Z,12.63
2018-11-10T01:42:55.586Z,13.13
2018-11-10T01:45:22.687Z,14.00
2018-11-10T01:47:49.796Z,12.60
2018-11-10T01:50:17.739Z,11.97
2018-11-10T01:52:44.851Z,12.87
2018-11-10T01:55:12.191Z,13.60
2018-11-10T01:57:39.974Z,14.13
2018-11-10T02:00:10.136Z,13.70
2018-11-10T02:02:37.269Z,13.03
2018-11-10T02:05:04.471Z,13.97
2018-11-10T02:07:31.572Z,13.10
2018-11-10T02:09:58.703Z,12.80
2018-11-10T02:12:25.855Z,13.57
2018-11-10T02:14:52.983Z,13.33
2018-11-10T02:17:20.103Z,12.83
2018-11-10T02:19:47.218Z,13.00
2018-11-10T02:22:14.343Z,12.30
2018-11-10T02:24:41.431Z,13.20
2018-11-10T02:27:14.407Z,13.90
2018-11-10T02:29:41.570Z,13.50
2018-11-10T02:32:08.686Z,12.53
2018-11-10T02:34:35.816Z,13.37
2018-11-10T02:37:02.942Z,12.77
2018-11-10T02:39:30.046Z,13.07
2018-11-10T02:41:57.170Z,13.63
2018-11-10T02:44:24.340Z,12.37
2018-11-10T02:46:51.468Z,13.30
2018-11-10T02:49:18.574Z,13.33
2018-11-10T02:51:45.666Z,13.33
2018-11-10T02:54:12.767Z,12.80
2018-11-10T02:56:39.878Z,13.93
2018-11-10T02:59:07.000Z,12.83
2018-11-10T03:01:34.088Z,13.20
2018-11-10T03:04:01.207Z,12.23
2018-11-10T03:06:28.347Z,13.27
2018-11-10T03:08:56.143Z,13.93
2018-11-10T03:11:23.265Z,13.07
2018-11-10T03:13:50.374Z,12.87
2018-11-10T03:16:17.517Z,12.30
2018-11-10T03:18:44.565Z,12.70
2018-11-10T03:21:11.700Z,13.23
2018-11-10T03:23:38.819Z,12.27
2018-11-10T03:26:05.953Z,12.10
2018-11-10T03:28:33.072Z,12.70
2018-11-10T03:31:00.204Z,12.20
2018-11-10T03:33:27.348Z,13.10
2018-11-10T03:35:54.460Z,13.10
2018-11-10T03:38:21.574Z,12.53
2018-11-10T03:40:48.679Z,12.63
2018-11-10T03:43:15.795Z,13.23
2018-11-10T03:45:42.930Z,12.03
2018-11-10T03:48:10.056Z,12.30
2018-11-10T03:50:37.209Z,12.40
2018-11-10T03:53:04.517Z,12.37
2018-11-10T03:55:31.638Z,12.50
2018-11-10T03:57:58.759Z,12.60
2018-11-10T04:00:25.872Z,12.87
2018-11-10T04:02:52.981Z,12.17
2018-11-10T04:05:20.064Z,12.13
2018-11-10T04:07:47.182Z,12.60
2018-11-10T04:10:14.672Z,12.67
2018-11-10T04:12:41.787Z,12.33
2018-11-10T04:15:08.951Z,12.03
2018-11-10T04:17:36.215Z,12.77
2018-11-10T04:20:04.259Z,13.00
2018-11-10T04:22:33.480Z,12.73
2018-11-10T04:25:01.007Z,11.73
2018-11-10T04:27:28.195Z,12.23
2018-11-10T04:29:55.287Z,12.60
2018-11-10T04:32:22.424Z,12.20
2018-11-10T04:34:49.524Z,12.90
2018-11-10T04:37:16.655Z,13.07
2018-11-10T04:39:43.750Z,12.17
2018-11-10T04:42:10.855Z,12.67
2018-11-10T04:44:37.983Z,12.57
2018-11-10T04:47:05.886Z,12.27
2018-11-10T04:49:33.014Z,12.03
2018-11-10T04:52:00.139Z,11.60
2018-11-10T04:54:27.251Z,11.97
2018-11-10T04:56:54.368Z,11.63
2018-11-10T04:59:21.476Z,12.03
2018-11-10T05:01:48.591Z,11.87
2018-11-10T05:04:15.686Z,11.40
2018-11-10T05:06:42.800Z,12.20
2018-11-10T05:09:10.571Z,11.43
2018-11-10T05:11:37.660Z,12.50
2018-11-10T05:14:05.092Z,11.53
2018-11-10T05:16:32.213Z,11.43
2018-11-10T05:18:59.350Z,11.87
2018-11-10T05:21:26.459Z,10.63
2018-11-10T05:23:53.547Z,12.20
2018-11-10T05:26:20.651Z,11.07
2018-11-10T05:28:47.797Z,11.80
2018-11-10T05:31:14.921Z,11.30
2018-11-10T05:33:42.023Z,11.47
2018-11-10T05:36:09.104Z,11.10
2018-11-10T05:38:36.235Z,11.13
2018-11-10T05:41:03.361Z,11.53
2018-11-10T05:43:30.439Z,11.40
2018-11-10T05:45:57.559Z,12.17
2018-11-10T05:48:24.868Z,11.33
2018-11-10T05:50:51.980Z,11.00
2018-11-10T05:53:19.068Z,11.77
2018-11-10T05:55:46.198Z,11.00
2018-11-10T05:58:13.303Z,10.60
2018-11-10T06:00:40.397Z,10.90
2018-11-10T06:03:07.566Z,11.30
2018-11-10T06:05:34.637Z,10.83
2018-11-10T06:08:01.739Z,11.10
2018-11-10T06:10:28.949Z,10.83
2018-11-10T06:12:56.031Z,11.63
2018-11-10T06:15:23.152Z,10.53
2018-11-10T06:17:50.244Z,11.03
2018-11-10T06:20:17.396Z,10.60
2018-11-10T06:22:44.508Z,10.93
2018-11-10T06:25:11.627Z,10.73
2018-11-10T06:27:39.097Z,10.93
2018-11-10T06:30:07.760Z,10.53
2018-11-10T06:32:35.095Z,10.23
2018-11-10T06:35:02.205Z,10.80
2018-11-10T06:37:29.353Z,10.73
2018-11-10T06:39:56.452Z,10.97
2018-11-10T06:42:23.733Z,10.73
2018-11-10T06:44:50.866Z,10.50
2018-11-10T06:47:17.973Z,11.23
2018-11-10T06:49:45.094Z,10.03
2018-11-10T06:52:12.280Z,10.03
2018-11-10T06:54:39.388Z,9.87
2018-11-10T06:57:06.480Z,10.50
2018-11-10T06:59:33.588Z,10.17
2018-11-10T07:02:00.694Z,10.70
2018-11-10T07:04:27.798Z,9.97
2018-11-10T07:06:54.903Z,10.10
2018-11-10T07:09:22.079Z,10.03
2018-11-10T07:11:49.791Z,10.13
2018-11-10T07:14:17.056Z,10.20
2018-11-10T07:16:44.155Z,10.47
2018-11-10T07:19:11.300Z,10.27
2018-11-10T07:21:38.426Z,9.83
2018-11-10T07:24:05.559Z,9.40
2018-11-10T07:26:32.642Z,10.27
2018-11-10T07:28:59.772Z,10.07
2018-11-10T07:31:26.904Z,9.87
2018-11-10T07:33:54.034Z,10.37
2018-11-10T07:36:21.159Z,10.67
2018-11-10T07:38:48.277Z,9.40
2018-11-10T07:41:15.483Z,9.80
2018-11-10T07:43:42.618Z,9.60
2018-11-10T07:46:09.723Z,9.90
2018-11-10T07:48:36.843Z,9.50
2018-11-10T07:51:04.217Z,9.47
2018-11-10T07:53:31.318Z,9.53
2018-11-10T07:55:58.482Z,9.87
2018-11-10T07:58:25.529Z,9.20
2018-11-10T08:00:52.627Z,10.50
2018-11-10T08:03:19.728Z,10.10
2018-11-10T08:05:46.847Z,10.20
2018-11-10T08:08:13.955Z,9.53
2018-11-10T08:10:41.047Z,9.87
2018-11-10T08:13:08.155Z,9.13
2018-11-10T08:15:35.263Z,10.57
2018-11-10T08:18:02.371Z,9.60
2018-11-10T08:20:29.495Z,9.63
2018-11-10T08:22:56.632Z,9.17
2018-11-10T08:25:23.719Z,10.47
2018-11-10T08:27:50.838Z,9.53
2018-11-10T08:30:17.953Z,9.07
2018-11-10T08:32:45.064Z,9.57
2018-11-10T08:35:13.007Z,9.93
2018-11-10T08:37:40.147Z,8.77
2018-11-10T08:40:10.463Z,9.43
2018-11-10T08:42:37.567Z,10.20
2018-11-10T08:45:05.925Z,9.80
2018-11-10T08:47:33.019Z,9.37
2018-11-10T08:50:00.098Z,10.27
2018-11-10T08:52:27.232Z,9.73
2018-11-10T08:54:54.374Z,9.70
2018-11-10T08:57:21.533Z,9.97
2018-11-10T08:59:48.656Z,9.17
2018-11-10T09:02:15.774Z,9.67
2018-11-10T09:04:42.870Z,8.93
2018-11-10T09:07:09.975Z,9.77
2018-11-10T09:09:37.134Z,10.43
2018-11-10T09:12:05.900Z,8.93
2018-11-10T09:14:33.015Z,9.80
2018-11-10T09:17:00.132Z,9.40
2018-11-10T09:19:27.245Z,9.90
2018-11-10T09:21:54.329Z,8.43
2018-11-10T09:24:21.435Z,8.60
2018-11-10T09:26:48.527Z,10.10
2018-11-10T09:29:15.631Z,10.07
2018-11-10T09:31:42.743Z,9.20
2018-11-10T09:34:09.885Z,9.30
2018-11-10T09:36:37.024Z,9.23
2018-11-10T09:39:05.730Z,9.50
2018-11-10T09:41:32.840Z,9.10
2018-11-10T09:43:59.940Z,10.03
2018-11-10T09:46:27.038Z,9.43
2018-11-10T09:48:54.139Z,9.30
2018-11-10T09:51:21.247Z,9.50
2018-11-10T09:53:48.350Z,9.47
2018-11-10T09:56:15.499Z,9.93
2018-11-10T09:58:42.620Z,10.03
2018-11-10T10:01:09.883Z,9.70
2018-11-10T10:03:36.868Z,8.87
2018-11-10T10:06:04.132Z,9.07
2018-11-10T10:08:31.244Z,9.70
2018-11-10T10:10:58.365Z,9.90
2018-11-10T10:13:25.487Z,10.47
2018-11-10T10:15:52.684Z,9.50
2018-11-10T10:18:19.707Z,9.47
2018-11-10T10:20:46.798Z,9.20
2018-11-10T10:23:13.897Z,9.47
2018-11-10T10:25:41.047Z,9.43
2018-11-10T10:28:08.169Z,9.17
2018-11-10T10:30:35.328Z,9.90
2018-11-10T10:33:02.463Z,9.63
2018-11-10T10:35:29.768Z,9.33
2018-11-10T10:37:56.700Z,9.57
2018-11-10T10:40:23.803Z,10.17
2018-11-10T10:42:50.959Z,9.80
2018-11-10T10:45:19.378Z,10.20
2018-11-10T10:47:46.471Z,9.87
2018-11-10T10:50:14.899Z,9.83
2018-11-10T10:52:42.043Z,9.20
2018-11-10T10:55:10.638Z,9.37
2018-11-10T10:57:37.758Z,10.00
2018-11-10T11:00:09.776Z,9.33
2018-11-10T11:02:42.991Z,9.63
2018-11-10T11:05:22.598Z,8.93
2018-11-10T11:07:49.825Z,9.43
2018-11-10T11:10:16.908Z,9.87
2018-11-10T11:12:44.020Z,9.70
2018-11-10T11:15:11.160Z,9.97
2018-11-10T11:17:38.235Z,9.70
2018-11-10T11:20:05.405Z,9.53
2018-11-10T11:22:32.512Z,9.20
2018-11-10T11:24:59.606Z,9.27
2018-11-10T11:27:26.691Z,10.40
2018-11-10T11:29:53.812Z,9.63
2018-11-10T11:32:20.911Z,10.30
2018-11-10T11:34:48.022Z,9.93
2018-11-10T11:37:15.112Z,9.43
2018-11-10T11:39:42.198Z,9.30
2018-11-10T11:42:09.288Z,8.73
2018-11-10T11:44:36.380Z,10.17
2018-11-10T11:47:03.528Z,9.00
2018-11-10T11:49:30.652Z,9.17
2018-11-10T11:51:57.758Z,9.70
2018-11-10T11:54:24.875Z,9.23
2018-11-10T11:56:52.000Z,9.33
2018-11-10T11:59:19.251Z,9.10
2018-11-10T12:01:46.363Z,9.57
2018-11-10T12:04:13.517Z,9.50
2018-11-10T12:06:40.602Z,9.43
2018-11-10T12:09:08.253Z,8.83
2018-11-10T12:11:35.374Z,8.83
2018-11-10T12:14:02.483Z,8.93
2018-11-10T12:16:29.592Z,9.60
2018-11-10T12:18:56.716Z,8.53
2018-11-10T12:21:23.803Z,8.80
2018-11-10T12:23:50.968Z,8.77
2018-11-10T12:26:18.020Z,8.83
2018-11-10T12:28:45.215Z,8.87
2018-11-10T12:31:12.317Z,8.97
2018-11-10T12:33:39.427Z,8.83
2018-11-10T12:36:06.518Z,9.27
2018-11-10T12:38:33.679Z,8.60
2018-11-10T12:41:00.760Z,8.73
2018-11-10T12:43:27.871Z,9.13
2018-11-10T12:45:54.988Z,8.30
2018-11-10T12:48:22.048Z,9.27
2018-11-10T12:50:49.127Z,7.87
2018-11-10T12:53:16.215Z,8.80
2018-11-10T12:55:43.327Z,9.03
2018-11-10T12:58:10.413Z,8.13
2018-11-10T13:00:37.490Z,8.50
2018-11-10T13:03:04.592Z,8.40
2018-11-10T13:05:31.703Z,7.93
2018-11-10T13:07:58.820Z,8.43
2018-11-10T13:10:25.901Z,8.37
2018-11-10T13:12:53.035Z,8.70
2018-11-10T13:15:20.124Z,8.57
2018-11-10T13:17:47.294Z,9.10
2018-11-10T13:20:14.960Z,8.37
2018-11-10T13:22:42.085Z,8.20
2018-11-10T13:25:10.811Z,8.77
2018-11-10T13:27:37.956Z,8.50
2018-11-10T13:30:06.495Z,7.73
2018-11-10T13:32:33.596Z,8.57
2018-11-10T13:35:00.683Z,8.17
2018-11-10T13:37:27.779Z,8.57
2018-11-10T13:39:55.070Z,8.43
2018-11-10T13:42:22.164Z,8.07
2018-11-10T13:44:49.294Z,8.50
2018-11-10T13:47:16.406Z,8.43
2018-11-10T13:49:43.535Z,8.20
2018-11-10T13:52:10.962Z,8.80
2018-11-10T13:54:37.840Z,9.13
2018-11-10T13:57:05.056Z,10.00
2018-11-10T13:59:32.283Z,9.10
2018-11-10T14:01:59.299Z,8.63
2018-11-10T14:04:26.407Z,8.53
2018-11-10T14:06:53.499Z,8.23
2018-11-10T14:09:20.569Z,8.20
2018-11-10T14:11:47.687Z,8.67
2018-11-10T14:14:14.810Z,8.50
2018-11-10T14:16:41.903Z,9.00
2018-11-10T14:19:09.043Z,8.77
2018-11-10T14:21:36.320Z,8.70
2018-11-10T14:24:04.240Z,8.73
2018-11-10T14:26:31.464Z,8.33
2018-11-10T14:28:58.516Z,8.80
2018-11-10T14:31:25.632Z,8.67
2018-11-10T14:33:52.714Z,8.43
2018-11-10T14:36:19.867Z,8.40
2018-11-10T14:38:46.957Z,8.13
2018-11-10T14:41:14.056Z,8.20
2018-11-10T14:43:41.121Z,8.67
2018-11-10T14:46:08.216Z,8.23
2018-11-10T14:48:35.317Z,8.70
2018-11-10T14:51:02.421Z,8.20
2018-11-10T14:53:29.551Z,8.03
2018-11-10T14:55:57.576Z,9.13
2018-11-10T14:58:24.707Z,9.27
2018-11-10T15:00:51.822Z,8.97
2018-11-10T15:03:18.917Z,9.10
2018-11-10T15:05:46.021Z,7.80
2018-11-10T15:08:13.176Z,8.80
2018-11-10T15:10:40.262Z,8.70
2018-11-10T15:13:07.356Z,8.23
2018-11-10T15:15:34.435Z,8.10
2018-11-10T15:18:01.614Z,8.17
2018-11-10T15:20:28.650Z,8.53
2018-11-10T15:22:55.745Z,8.50
2018-11-10T15:25:22.937Z,8.17
2018-11-10T15:27:49.976Z,8.53
2018-11-10T15:30:18.383Z,8.30
2018-11-10T15:32:46.066Z,8.43
2018-11-10T15:35:14.332Z,8.20
2018-11-10T15:37:42.519Z,8.47
2018-11-10T15:40:10.871Z,8.17
2018-11-10T15:42:38.006Z,8.00
2018-11-10T15:45:05.496Z,8.57
2018-11-10T15:47:32.607Z,8.73
2018-11-10T15:49:59.733Z,8.37
2018-11-10T15:52:26.855Z,8.23
2018-11-10T15:54:54.003Z,9.00
2018-11-10T15:57:21.260Z,8.43
2018-11-10T15:59:48.372Z,8.23
2018-11-10T16:02:15.484Z,8.70
2018-11-10T16:04:42.583Z,8.87
2018-11-10T16:07:09.667Z,8.27
2018-11-10T16:09:36.755Z,7.87
2018-11-10T16:12:03.868Z,7.93
2018-11-10T16:14:30.963Z,8.20
2018-11-10T16:16:58.090Z,8.90
2018-11-10T16:19:25.198Z,8.10
2018-11-10T16:21:52.292Z,8.00
2018-11-10T16:24:19.407Z,8.37
2018-11-10T16:26:46.487Z,8.03
2018-11-10T16:29:13.615Z,8.70
2018-11-10T16:31:40.704Z,8.40
2018-11-10T16:34:07.823Z,7.27
2018-11-10T16:36:34.903Z,8.10
2018-11-10T16:39:02.025Z,8.30
2018-11-10T16:41:29.147Z,8.50
2018-11-10T16:43:56.252Z,7.90
2018-11-10T16:46:23.342Z,8.47
2018-11-10T16:48:50.434Z,8.33
2018-11-10T16:51:17.564Z,8.13
2018-11-10T16:53:44.688Z,8.37
2018-11-10T16:56:11.774Z,7.23
2018-11-10T16:58:38.907Z,8.30
2018-11-10T17:01:06.011Z,8.43
2018-11-10T17:03:33.094Z,8.33
2018-11-10T17:06:00.202Z,8.20
2018-11-10T17:08:27.370Z,9.33
2018-11-10T17:10:54.670Z,8.07
2018-11-10T17:13:21.836Z,8.60
2018-11-10T17:15:48.884Z,8.50
2018-11-10T17:18:15.995Z,8.33
2018-11-10T17:20:43.118Z,8.03
2018-11-10T17:23:10.244Z,8.67
2018-11-10T17:25:37.339Z,8.50
2018-11-10T17:28:04.448Z,8.53
2018-11-10T17:30:31.575Z,8.23
2018-11-10T17:32:58.672Z,8.70
2018-11-10T17:35:25.764Z,8.23
2018-11-10T17:37:52.925Z,8.87
2018-11-10T17:40:20.062Z,8.60
2018-11-10T17:42:47.128Z,9.07
2018-11-10T17:45:15.631Z,8.47
2018-11-10T17:47:43.024Z,9.10
2018-11-10T17:50:11.458Z,9.50
2018-11-10T17:52:39.060Z,8.87
2018-11-10T17:55:06.628Z,9.63
2018-11-10T17:57:33.845Z,8.53
2018-11-10T18:00:00.923Z,9.13
2018-11-10T18:02:28.068Z,8.50
2018-11-10T18:04:55.155Z,10.37
2018-11-10T18:07:22.278Z,9.03
2018-11-10T18:09:49.404Z,9.33
2018-11-10T18:12:21.981Z,9.10
2018-11-10T18:14:49.096Z,9.57
2018-11-10T18:17:16.252Z,9.83
